Time;durP1;ratioP1;P1;durP2;ratioP2;P2;SDS_P1;SDS_P2;PMS_P1;PMS_P2;Temp;Humidity;BMP_temperature;BMP_pressure;BME280_temperature;BME280_humidity;BME280_pressure;Samples;Min_cycle;Max_cycle;Signal;HPM_P1;HPM_P2
2022/09/04 00:00:00;;;;;;;10.20;6.60;;;;;;;14.73;61.08;101190.30;1752504;80;21046;-48
2022/09/04 00:03:00;;;;;;;9.78;6.22;;;;;;;14.76;60.29;101190.87;1748522;80;21067;-48
2022/09/04 00:05:34;;;;;;;12.43;6.35;;;;;;;14.81;58.18;101195.75;1739988;80;21069;-48
2022/09/04 00:08:37;;;;;;;11.30;5.62;;;;;;;14.88;56.28;101198.25;1742207;80;21065;-48
2022/09/04 00:11:19;;;;;;;12.60;6.53;;;;;;;14.90;55.20;101201.61;1750276;80;21119;-48
2022/09/04 00:13:59;;;;;;;12.00;7.55;;;;;;;14.92;54.91;101200.16;1673038;82;21483;-47
2022/09/04 00:16:33;;;;;;;10.48;6.85;;;;;;;14.85;55.97;101199.84;1746524;80;21066;-47
2022/09/04 00:19:36;;;;;;;10.98;6.37;;;;;;;14.78;56.26;101198.19;1750117;80;21539;-47
2022/09/04 00:22:11;;;;;;;11.97;6.90;;;;;;;14.71;56.96;101200.16;1746427;80;21062;-47
2022/09/04 00:24:42;;;;;;;10.00;6.15;;;;;;;14.63;57.69;101205.63;1748729;80;21202;-47
2022/09/04 00:27:22;;;;;;;12.53;6.70;;;;;;;14.56;57.95;101206.22;1752342;80;21091;-48
2022/09/04 00:30:10;;;;;;;10.40;6.30;;;;;;;14.51;57.51;101205.31;1747982;81;21116;-48
2022/09/04 00:33:02;;;;;;;10.48;6.17;;;;;;;14.47;56.34;101202.08;1748711;80;21055;-50
2022/09/04 00:35:38;;;;;;;10.35;6.55;;;;;;;14.46;56.20;101211.47;1741554;81;21579;-47
2022/09/04 00:38:45;;;;;;;11.18;6.35;;;;;;;14.40;56.40;101214.13;1750864;81;21214;-48
2022/09/04 00:41:31;;;;;;;12.68;7.45;;;;;;;14.35;56.14;101208.38;1751433;80;21426;-48
2022/09/04 00:44:03;;;;;;;12.15;7.75;;;;;;;14.31;55.89;101209.61;1750869;80;21068;-47
2022/09/04 00:46:47;;;;;;;13.60;7.85;;;;;;;14.27;55.88;101209.03;1751875;80;21055;-49
2022/09/04 00:49:50;;;;;;;14.30;7.92;;;;;;;14.24;55.80;101204.45;1744998;80;21581;-47
2022/09/04 00:52:23;;;;;;;12.85;7.08;;;;;;;14.20;55.91;101208.33;1755824;79;21138;-47
2022/09/04 00:55:01;;;;;;;12.98;7.60;;;;;;;14.15;56.12;101210.52;1757321;79;21056;-47
2022/09/04 00:58:10;;;;;;;12.93;7.80;;;;;;;14.10;56.30;101210.42;1759273;79;21067;-47
2022/09/04 01:00:37;;;;;;;13.32;8.28;;;;;;;14.05;56.03;101216.54;1758682;79;21542;-48
2022/09/04 01:03:36;;;;;;;12.05;6.78;;;;;;;14.02;56.21;101218.14;1760081;79;21665;-47
2022/09/04 01:06:33;;;;;;;10.75;7.28;;;;;;;13.98;56.64;101214.53;1756126;79;21197;-48
2022/09/04 01:09:37;;;;;;;10.25;7.03;;;;;;;13.93;57.23;101205.64;1761918;79;21053;-48
2022/09/04 01:12:37;;;;;;;12.05;7.45;;;;;;;13.89;56.73;101207.70;1759929;79;21010;-48
2022/09/04 01:15:40;;;;;;;13.18;7.90;;;;;;;13.85;56.16;101204.09;1763654;81;21281;-48
2022/09/04 01:18:36;;;;;;;14.03;7.40;;;;;;;13.84;56.36;101213.84;1756793;80;21530;-48
2022/09/04 01:21:48;;;;;;;13.00;7.83;;;;;;;13.82;56.58;101209.63;1768316;79;21289;-48
2022/09/04 01:24:40;;;;;;;13.08;8.18;;;;;;;13.80;56.69;101203.63;1762245;79;21046;-48
2022/09/04 01:27:30;;;;;;;15.38;8.18;;;;;;;13.78;56.55;101201.59;1754066;80;20990;-46
2022/09/04 01:30:09;;;;;;;14.53;7.42;;;;;;;13.75;56.40;101200.88;1753682;81;21043;-46
2022/09/04 01:33:05;;;;;;;12.95;7.40;;;;;;;13.73;55.94;101198.85;1757678;79;21534;-47
2022/09/04 01:36:00;;;;;;;11.75;7.25;;;;;;;13.70;55.87;101196.45;1761774;79;21422;-47
2022/09/04 01:38:41;;;;;;;11.68;6.65;;;;;;;13.69;55.73;101204.02;1759636;79;21083;-47
2022/09/04 01:41:27;;;;;;;15.23;7.67;;;;;;;13.67;55.80;101209.09;1758242;80;21013;-47
2022/09/04 01:43:53;;;;;;;13.85;8.20;;;;;;;13.64;56.65;101202.22;1760829;79;21574;-48
2022/09/04 01:46:42;;;;;;;10.95;6.40;;;;;;;13.65;57.25;101201.73;1759062;81;21118;-48
2022/09/04 01:49:40;;;;;;;14.83;8.10;;;;;;;13.67;58.26;101199.34;1761823;79;21149;-48
2022/09/04 01:52:48;;;;;;;13.70;6.97;;;;;;;13.74;59.41;101199.19;1756632;80;21056;-47
2022/09/04 01:55:35;;;;;;;13.88;7.37;;;;;;;13.86;60.09;101205.79;1753453;80;21040;-46
2022/09/04 01:58:10;;;;;;;10.43;7.05;;;;;;;13.92;60.30;101205.30;1753836;80;21531;-47
2022/09/04 02:00:49;;;;;;;11.25;7.35;;;;;;;13.89;60.58;101198.94;1745059;80;21063;-46
2022/09/04 02:04:01;;;;;;;11.78;6.90;;;;;;;13.87;60.37;101195.55;1747859;80;21176;-46
2022/09/04 02:06:56;;;;;;;11.90;7.30;;;;;;;13.82;60.16;101194.62;1742827;80;20996;-47
2022/09/04 02:09:48;;;;;;;19.85;7.62;;;;;;;13.83;57.87;101196.28;1709269;81;21099;-47
2022/09/04 02:13:12;;;;;;;18.77;8.03;;;;;;;13.84;57.47;101200.62;1750598;80;21084;-47
2022/09/04 02:16:13;;;;;;;13.95;7.22;;;;;;;13.82;57.71;101191.97;1749173;80;21155;-47
2022/09/04 02:18:49;;;;;;;10.95;7.28;;;;;;;13.78;57.70;101193.17;1749009;80;21976;-47
2022/09/04 02:21:36;;;;;;;13.22;7.40;;;;;;;13.74;57.38;101198.36;1748572;81;21614;-46
2022/09/04 02:24:11;;;;;;;12.88;7.80;;;;;;;13.69;57.37;101197.89;1750229;80;21478;-47
2022/09/04 02:27:11;;;;;;;12.68;7.60;;;;;;;13.62;57.70;101202.00;1749153;81;21151;-47
2022/09/04 02:30:03;;;;;;;14.10;8.53;;;;;;;13.56;57.75;101206.78;1748808;80;21093;-48
2022/09/04 02:32:46;;;;;;;12.35;8.73;;;;;;;13.45;58.57;101202.86;1750807;80;21187;-47
2022/09/04 02:35:36;;;;;;;12.18;8.43;;;;;;;13.33;59.60;101204.66;1745279;80;21108;-49
2022/09/04 02:38:26;;;;;;;16.65;9.78;;;;;;;13.30;60.33;101204.03;1748066;80;21061;-48
2022/09/04 02:41:10;;;;;;;14.68;9.78;;;;;;;13.28;61.15;101204.16;1745337;80;22262;-48
2022/09/04 02:44:19;;;;;;;13.50;9.80;;;;;;;13.27;61.61;101212.20;1725040;80;21003;-48
2022/09/04 02:47:33;;;;;;;16.93;11.22;;;;;;;13.25;61.98;101210.16;1751469;80;21467;-47
2022/09/04 02:50:30;;;;;;;15.90;11.05;;;;;;;13.15;62.20;101206.91;1739530;80;21095;-48
2022/09/04 02:53:21;;;;;;;16.23;10.53;;;;;;;13.07;62.66;101215.91;1680279;80;21135;-46
2022/09/04 02:56:19;;;;;;;17.00;11.68;;;;;;;12.96;62.96;101207.95;1752858;80;21153;-47
2022/09/04 02:59:10;;;;;;;15.90;10.80;;;;;;;12.90;63.66;101213.73;1746409;80;21060;-47
2022/09/04 03:02:00;;;;;;;15.72;10.63;;;;;;;12.88;63.71;101211.20;1751040;80;22019;-49
2022/09/04 03:04:48;;;;;;;12.30;10.03;;;;;;;12.87;63.75;101212.64;1688344;83;21071;-47
2022/09/04 03:07:44;;;;;;;14.85;9.90;;;;;;;12.86;63.93;101213.58;1744027;80;21099;-47
2022/09/04 03:10:17;;;;;;;13.72;9.68;;;;;;;12.86;64.10;101216.22;1749069;80;21728;-47
2022/09/04 03:12:55;;;;;;;17.27;10.40;;;;;;;12.84;64.14;101217.66;1733157;81;21052;-47
2022/09/04 03:15:46;;;;;;;15.72;10.75;;;;;;;12.80;64.13;101213.09;1750906;80;21144;-48
2022/09/04 03:18:34;;;;;;;19.15;10.82;;;;;;;12.77;64.16;101222.56;1744612;80;21039;-48
2022/09/04 03:21:06;;;;;;;18.77;10.98;;;;;;;12.70;64.30;101216.56;1751043;80;21043;-47
2022/09/04 03:24:00;;;;;;;12.43;9.55;;;;;;;12.62;64.45;101220.64;1752501;80;21143;-47
2022/09/04 03:26:36;;;;;;;22.62;10.50;;;;;;;12.63;64.63;101220.15;1750129;80;21061;-47
2022/09/04 03:29:23;;;;;;;16.70;11.53;;;;;;;12.64;64.74;101214.75;1745373;80;21107;-47
2022/09/04 03:32:21;;;;;;;15.75;11.35;;;;;;;12.62;64.88;101221.09;1746513;80;21054;-47
2022/09/04 03:35:16;;;;;;;18.37;11.30;;;;;;;12.61;64.90;101226.03;1750334;80;21122;-47
2022/09/04 03:37:54;;;;;;;15.13;11.12;;;;;;;12.58;64.82;101223.61;1754061;80;21554;-47
2022/09/04 03:40:35;;;;;;;18.75;11.45;;;;;;;12.51;64.87;101225.01;1747640;80;21421;-46
2022/09/04 03:43:45;;;;;;;18.20;11.43;;;;;;;12.46;65.01;101230.66;1703304;82;21143;-46
2022/09/04 03:46:26;;;;;;;15.80;10.58;;;;;;;12.43;65.11;101231.71;1747635;80;21085;-46
2022/09/04 03:49:02;;;;;;;17.32;11.63;;;;;;;12.44;65.10;101238.69;1752454;80;22356;-46
2022/09/04 03:51:54;;;;;;;15.72;10.55;;;;;;;12.43;65.34;101238.31;1752049;80;21063;-46
2022/09/04 03:54:53;;;;;;;15.18;11.12;;;;;;;12.41;65.57;101236.76;1681112;80;21039;-47
2022/09/04 03:57:36;;;;;;;15.32;10.78;;;;;;;12.41;65.75;101235.44;1748135;80;21151;-46
2022/09/04 04:00:17;;;;;;;14.63;10.35;;;;;;;12.42;65.83;101237.97;1743562;80;21008;-47
2022/09/04 04:03:00;;;;;;;18.67;10.98;;;;;;;12.39;65.84;101239.51;1748071;80;21117;-47
2022/09/04 04:05:37;;;;;;;16.02;10.35;;;;;;;12.36;65.95;101241.05;1751984;80;21090;-46
2022/09/04 04:08:26;;;;;;;19.95;10.65;;;;;;;12.39;65.94;101236.00;1742767;80;21726;-46
2022/09/04 04:11:37;;;;;;;14.35;9.28;;;;;;;12.50;65.84;101239.19;1756038;80;21092;-46
2022/09/04 04:14:36;;;;;;;14.93;10.08;;;;;;;12.56;65.85;101238.73;1751113;80;21040;-46
2022/09/04 04:17:29;;;;;;;17.00;9.23;;;;;;;12.66;65.94;101232.27;1741339;79;21087;-46
2022/09/04 04:20:24;;;;;;;12.93;8.18;;;;;;;12.79;65.86;101234.34;1747829;81;21138;-46
2022/09/04 04:23:16;;;;;;;13.53;9.33;;;;;;;12.93;65.41;101235.95;1732988;81;21538;-46
2022/09/04 04:26:06;;;;;;;12.35;8.98;;;;;;;13.01;64.77;101242.33;1748859;80;21559;-46
2022/09/04 04:28:58;;;;;;;14.65;8.90;;;;;;;13.15;64.48;101249.67;1751849;80;21497;-46
2022/09/04 04:31:33;;;;;;;13.38;8.43;;;;;;;13.25;64.50;101250.64;1745567;80;21054;-46
2022/09/04 04:34:29;;;;;;;11.95;7.35;;;;;;;13.30;63.76;101248.97;1753530;80;20996;-46
2022/09/04 04:37:01;;;;;;;11.07;6.53;;;;;;;13.33;63.18;101252.70;1748385;80;21040;-46
2022/09/04 04:39:36;;;;;;;9.93;6.15;;;;;;;13.35;61.09;101252.12;1737471;80;21146;-46
2022/09/04 04:42:20;;;;;;;10.55;6.28;;;;;;;13.37;59.27;101258.13;1706386;82;21111;-46
2022/09/04 04:49:07;;;;;;;9.80;5.50;;;;;;;13.41;56.94;101260.05;1704847;82;21021;-46
2022/09/04 04:52:07;;;;;;;9.80;6.17;;;;;;;13.40;56.95;101261.86;1702100;82;21111;-47
2022/09/04 04:54:51;;;;;;;11.33;5.47;;;;;;;13.39;55.56;101264.13;1745584;80;21154;-46
2022/09/04 04:57:34;;;;;;;9.25;5.10;;;;;;;13.37;55.33;101260.28;1740537;80;21560;-46
2022/09/04 05:00:50;;;;;;;7.87;4.87;;;;;;;13.37;55.34;101266.06;1702829;80;21090;-47
2022/09/04 05:03:43;;;;;;;8.73;5.28;;;;;;;13.39;55.55;101266.77;1746456;80;21044;-47
2022/09/04 05:07:37;;;;;;;8.70;4.92;;;;;;;13.55;55.21;101268.59;1865219;75;22745;-47
2022/09/04 05:10:36;;;;;;;8.65;5.35;;;;;;;13.63;55.11;101271.09;1840015;76;21104;-47
2022/09/04 05:13:17;;;;;;;9.05;5.10;;;;;;;13.65;55.14;101277.96;1841412;75;21226;-47
2022/09/04 05:16:11;;;;;;;7.70;4.83;;;;;;;13.68;54.59;101271.08;1831257;75;21044;-46
2022/09/04 05:18:57;;;;;;;7.37;4.35;;;;;;;13.72;54.47;101277.00;1792264;75;21043;-48
2022/09/04 05:21:39;;;;;;;;;;;;;;;13.75;54.05;101281.56;1845019;76;21323;-47
2022/09/04 05:24:23;;;;;;;8.93;4.42;;;;;;;13.78;54.32;101276.98;1841726;76;20472;-47
2022/09/04 05:27:01;;;;;;;8.50;3.98;;;;;;;13.81;53.68;101280.22;1834409;75;21069;-45
2022/09/04 05:29:57;;;;;;;8.50;4.25;;;;;;;13.85;53.22;101286.10;1839574;76;21084;-46
2022/09/04 05:32:50;;;;;;;;;;;;;;;13.89;53.40;101282.27;1846570;75;20960;-46
2022/09/04 05:35:32;;;;;;;9.20;4.33;;;;;;;13.94;53.42;101283.57;1850067;75;20206;-46
2022/09/04 05:38:24;;;;;;;13.35;3.83;;;;;;;13.99;53.76;101290.31;1840020;75;21749;-49
2022/09/04 05:41:42;;;;;;;6.95;3.85;;;;;;;14.09;53.41;101284.15;1840238;76;22131;-47
2022/09/04 05:44:29;;;;;;;6.22;3.35;;;;;;;14.21;53.07;101297.37;1778209;76;21041;-47
2022/09/04 05:47:10;;;;;;;7.55;4.00;;;;;;;14.30;53.16;101298.76;1829727;75;21018;-47
2022/09/04 05:50:12;;;;;;;7.83;3.80;;;;;;;14.35;52.23;101297.56;1837611;76;21168;-47
2022/09/04 05:52:57;;;;;;;7.30;3.95;;;;;;;14.42;51.98;101306.67;1803733;75;21015;-47
2022/09/04 05:56:09;;;;;;;6.47;3.37;;;;;;;14.51;52.12;101305.94;1825200;76;21065;-46
2022/09/04 05:58:53;;;;;;;7.42;3.92;;;;;;;14.55;52.48;101307.36;1840308;75;21082;-46
2022/09/04 06:02:04;;;;;;;5.92;3.40;;;;;;;14.65;53.08;101317.58;1835184;75;21047;-46
2022/09/04 06:04:58;;;;;;;6.20;3.02;;;;;;;14.75;52.25;101313.69;1838554;77;21027;-48
2022/09/04 06:07:43;;;;;;;11.20;3.85;;;;;;;14.83;51.12;101316.55;1775408;78;21018;-48
2022/09/04 06:10:54;;;;;;;8.15;3.62;;;;;;;14.91;51.05;101312.41;1787673;78;21513;-48
2022/09/04 06:13:38;;;;;;;8.03;4.00;;;;;;;14.99;50.60;101321.88;1774879;79;21070;-47
2022/09/04 06:16:40;;;;;;;8.73;3.08;;;;;;;15.03;49.99;101320.67;1771396;78;21597;-46
2022/09/04 06:19:30;;;;;;;13.18;3.22;;;;;;;15.05;49.44;101320.88;1776060;79;21062;-46
2022/09/04 06:22:33;;;;;;;9.55;3.75;;;;;;;15.07;49.02;101319.43;1782241;78;21557;-47
2022/09/04 06:25:27;;;;;;;6.55;3.55;;;;;;;15.14;49.76;101324.56;1731969;78;21142;-47
2022/09/04 06:28:33;;;;;;;8.45;3.92;;;;;;;15.22;50.08;101327.91;1795383;78;21116;-47
2022/09/04 06:31:23;;;;;;;6.20;3.37;;;;;;;15.30;49.33;101329.88;1773766;78;21057;-47
2022/09/04 06:34:06;;;;;;;6.20;3.40;;;;;;;15.33;49.23;101328.30;1763591;78;22548;-47
2022/09/04 06:37:20;;;;;;;9.40;3.90;;;;;;;15.38;48.86;101332.27;1768757;80;21626;-47
2022/09/04 06:40:37;;;;;;;6.10;3.20;;;;;;;15.44;48.53;101326.08;1800428;78;21118;-47
2022/09/04 06:43:33;;;;;;;7.37;3.45;;;;;;;15.54;49.05;101336.25;1799801;78;21038;-46
2022/09/04 06:46:30;;;;;;;9.48;3.15;;;;;;;15.65;48.51;101338.83;1773336;78;21053;-48
2022/09/04 06:49:09;;;;;;;;;;;;;;;15.73;49.10;101339.47;1778024;78;20983;-46
2022/09/04 06:51:54;;;;;;;5.95;2.72;;;;;;;15.82;47.71;101343.16;1797550;78;20129;-46
2022/09/04 06:54:50;;;;;;;7.87;2.27;;;;;;;15.87;47.43;101340.48;1799098;78;21230;-46
2022/09/04 06:57:29;;;;;;;5.72;2.37;;;;;;;15.94;47.42;101346.92;1775032;78;20992;-46
2022/09/04 07:00:01;;;;;;;6.00;2.40;;;;;;;15.99;45.86;101338.56;1716894;79;21485;-46
2022/09/04 07:02:50;;;;;;;5.35;2.75;;;;;;;16.04;45.82;101340.80;1782559;78;21061;-46
2022/09/04 07:05:48;;;;;;;5.15;2.17;;;;;;;16.09;46.24;101336.78;1780578;79;21140;-46
2022/09/04 07:08:58;;;;;;;5.75;2.22;;;;;;;16.14;45.18;101335.05;1752867;78;21308;-46
2022/09/04 07:12:09;;;;;;;5.58;2.15;;;;;;;16.22;46.06;101335.68;1787736;78;21064;-47
2022/09/04 07:14:53;;;;;;;4.62;1.80;;;;;;;16.33;44.56;101339.05;1764555;79;21139;-46
2022/09/04 07:17:35;;;;;;;4.53;1.70;;;;;;;16.45;44.50;101330.97;1733855;78;21065;-46
2022/09/04 07:20:21;;;;;;;5.33;2.37;;;;;;;16.53;42.71;101330.62;1785029;78;21037;-46
2022/09/04 07:23:23;;;;;;;;;;;;;;;16.60;42.54;101330.91;1788129;78;21277;-46
2022/09/04 07:26:26;;;;;;;4.78;2.17;;;;;;;16.64;42.30;101331.47;1779715;78;20626;-46
2022/09/04 07:29:18;;;;;;;6.15;2.05;;;;;;;16.66;42.05;101329.03;1784882;78;20987;-46
2022/09/04 07:32:05;;;;;;;4.05;1.60;;;;;;;16.73;42.81;101334.63;1781714;78;21171;-46
2022/09/04 07:35:01;;;;;;;7.70;2.08;;;;;;;16.82;42.17;101333.77;1788637;78;21540;-46
2022/09/04 07:37:49;;;;;;;4.93;1.47;;;;;;;16.89;41.86;101324.31;1783937;78;21200;-46
2022/09/04 07:40:43;;;;;;;6.25;1.70;;;;;;;16.98;41.93;101317.77;1785052;78;21739;-46
2022/09/04 07:43:35;;;;;;;6.12;1.95;;;;;;;17.06;41.60;101324.55;1790813;78;21069;-46
2022/09/04 07:46:11;;;;;;;4.62;1.90;;;;;;;17.14;41.21;101322.52;1793468;78;21039;-46
2022/09/04 07:48:54;;;;;;;4.78;1.60;;;;;;;17.22;40.61;101326.14;1802078;79;21013;-45
2022/09/04 07:51:26;;;;;;;4.05;1.77;;;;;;;17.27;41.74;101321.23;1768636;79;21750;-46
2022/09/04 07:54:30;;;;;;;5.35;1.50;;;;;;;17.35;40.47;101315.20;1781848;78;21099;-46
2022/09/04 07:57:11;;;;;;;3.90;1.67;;;;;;;17.47;39.49;101309.21;1763143;78;21473;-46
2022/09/04 07:59:49;;;;;;;3.75;1.50;;;;;;;17.56;39.58;101309.65;1800541;78;21070;-46
2022/09/04 08:02:49;;;;;;;4.58;1.40;;;;;;;17.63;37.70;101308.10;1778119;78;20995;-46
2022/09/04 08:05:48;;;;;;;3.08;1.10;;;;;;;17.68;37.96;101312.13;1813559;78;21128;-46
2022/09/04 08:08:43;;;;;;;4.70;1.35;;;;;;;17.74;38.00;101309.73;1817137;77;21015;-46
2022/09/04 08:11:39;;;;;;;3.67;1.20;;;;;;;17.76;36.67;101321.56;1815685;77;22198;-44
2022/09/04 08:14:26;;;;;;;2.83;1.05;;;;;;;17.78;37.32;101324.91;1811418;77;21580;-46
2022/09/04 08:17:24;;;;;;;3.30;0.98;;;;;;;17.80;36.54;101318.94;1807108;77;21101;-46
2022/09/04 08:20:21;;;;;;;3.42;1.12;;;;;;;17.84;35.09;101319.00;1814810;77;21195;-46
2022/09/04 08:23:19;;;;;;;4.92;1.52;;;;;;;17.89;35.36;101323.92;1782296;78;21140;-45
2022/09/04 08:26:22;;;;;;;3.98;1.02;;;;;;;17.93;37.16;101332.77;1806960;77;21093;-46
2022/09/04 08:29:11;;;;;;;2.65;0.88;;;;;;;18.04;36.74;101330.42;1813951;77;21034;-45
2022/09/04 08:32:06;;;;;;;3.37;1.10;;;;;;;18.16;37.29;101330.55;1823636;77;21034;-46
2022/09/04 08:34:53;;;;;;;3.62;1.35;;;;;;;18.34;36.96;101338.59;1780880;78;21881;-47
2022/09/04 08:37:27;;;;;;;4.30;1.27;;;;;;;18.53;36.54;101334.11;1814353;78;21041;-48
2022/09/04 08:40:31;;;;;;;4.58;1.30;;;;;;;18.65;36.83;101328.05;1782013;78;21640;-48
2022/09/04 08:43:20;;;;;;;5.15;1.32;;;;;;;18.78;36.86;101332.98;1808363;77;21058;-46
2022/09/04 08:46:43;;;;;;;3.60;1.07;;;;;;;18.82;36.16;101334.36;1812463;77;21031;-45
2022/09/04 08:49:32;;;;;;;3.90;1.00;;;;;;;18.80;35.37;101332.36;1805832;77;21024;-45
2022/09/04 08:52:17;;;;;;;3.08;1.10;;;;;;;18.66;36.22;101332.37;1820901;77;20922;-45
2022/09/04 08:55:11;;;;;;;2.65;1.00;;;;;;;18.57;36.41;101332.80;1782928;78;21613;-45
2022/09/04 08:58:00;;;;;;;3.70;1.17;;;;;;;18.50;36.19;101328.57;1789149;79;21094;-45
2022/09/04 09:01:04;;;;;;;2.72;1.10;;;;;;;18.47;36.31;101332.04;1772840;79;21113;-45
2022/09/04 09:03:51;;;;;;;3.65;1.20;;;;;;;18.48;35.69;101323.89;1810534;77;21126;-45
2022/09/04 09:06:46;;;;;;;3.10;0.90;;;;;;;18.55;36.03;101322.29;1777933;79;21034;-46
2022/09/04 09:09:48;;;;;;;5.15;1.35;;;;;;;18.64;35.77;101315.20;1803001;77;23195;-45
2022/09/04 09:12:38;;;;;;;3.20;1.00;;;;;;;18.79;37.13;101317.34;1789122;78;21030;-46
2022/09/04 09:15:23;;;;;;;4.83;1.20;;;;;;;18.94;35.47;101311.82;1793152;78;21114;-47
2022/09/04 09:18:34;;;;;;;3.62;0.90;;;;;;;19.04;35.71;101313.06;1704856;80;21285;-47
2022/09/04 09:21:09;;;;;;;3.00;0.98;;;;;;;19.14;36.26;101314.30;1805488;78;21099;-46
2022/09/04 09:24:00;;;;;;;3.87;1.30;;;;;;;19.25;35.27;101311.39;1759938;78;21069;-47
2022/09/04 09:26:29;;;;;;;3.12;1.07;;;;;;;19.26;34.05;101315.20;1798103;78;21128;-46
2022/09/04 09:29:29;;;;;;;4.62;1.10;;;;;;;19.25;33.75;101313.55;1778631;78;21548;-47
2022/09/04 09:32:08;;;;;;;4.12;1.30;;;;;;;19.31;33.40;101310.23;1804601;77;21131;-47
2022/09/04 09:35:00;;;;;;;3.92;1.17;;;;;;;19.45;33.59;101306.16;1785564;78;21073;-47
2022/09/04 09:37:50;;;;;;;3.83;1.12;;;;;;;19.52;33.63;101311.70;1789070;78;21078;-48
2022/09/04 09:40:31;;;;;;;3.62;1.30;;;;;;;19.54;33.57;101304.87;1795576;78;21073;-47
2022/09/04 09:43:25;;;;;;;2.30;0.70;;;;;;;19.54;33.57;101311.55;1806211;77;21113;-47
2022/09/04 09:46:19;;;;;;;3.70;1.20;;;;;;;19.53;32.98;101307.19;1794008;78;21126;-47
2022/09/04 09:49:13;;;;;;;3.17;0.90;;;;;;;19.54;33.28;101305.70;1776382;78;21363;-48
2022/09/04 09:52:04;;;;;;;3.98;0.93;;;;;;;19.57;33.63;101305.86;1813702;77;21038;-47
2022/09/04 09:55:21;;;;;;;6.92;1.22;;;;;;;19.65;33.23;101308.58;1764511;80;21020;-47
2022/09/04 09:58:27;;;;;;;3.05;1.05;;;;;;;19.64;31.55;101306.41;1803218;78;21061;-48
2022/09/04 10:01:26;;;;;;;4.60;1.27;;;;;;;19.64;32.54;101309.59;1803053;77;21123;-46
2022/09/04 10:04:49;;;;;;;2.67;1.00;;;;;;;19.71;32.28;101304.45;1792472;78;21680;-46
2022/09/04 10:07:39;;;;;;;5.40;1.22;;;;;;;19.85;32.30;101308.72;1808276;77;21081;-46
2022/09/04 10:10:23;;;;;;;6.90;1.25;;;;;;;19.85;32.64;101303.38;1801012;77;21101;-46
2022/09/04 10:13:21;;;;;;;2.95;1.10;;;;;;;19.76;32.62;101309.67;1798478;78;21057;-46
2022/09/04 10:16:17;;;;;;;2.42;1.00;;;;;;;19.65;33.36;101310.77;1774337;79;21118;-46
2022/09/04 10:18:55;;;;;;;4.35;1.42;;;;;;;19.61;33.71;101305.39;1791292;77;21049;-46
2022/09/04 10:22:00;;;;;;;3.98;1.22;;;;;;;19.66;33.94;101302.25;1813700;77;21548;-46
2022/09/04 10:24:48;;;;;;;3.20;1.27;;;;;;;19.81;33.60;101301.18;1798259;78;21042;-48
2022/09/04 10:28:02;;;;;;;3.60;1.00;;;;;;;19.93;33.29;101299.88;1757548;79;21096;-47
2022/09/04 10:30:46;;;;;;;2.77;0.98;;;;;;;20.05;33.37;101296.41;1801511;77;21213;-47
2022/09/04 10:33:45;;;;;;;4.95;1.20;;;;;;;20.13;32.25;101297.77;1808876;78;21042;-47
2022/09/04 10:36:36;;;;;;;2.85;0.95;;;;;;;20.21;32.50;101295.12;1784015;80;21100;-47
2022/09/04 10:42:21;;;;;;;3.63;1.20;;;;;;;20.53;31.31;101296.67;1795705;78;21054;-46
2022/09/04 10:45:11;;;;;;;2.98;1.07;;;;;;;20.77;31.02;101290.52;1802578;77;21868;-46
2022/09/04 10:47:52;;;;;;;2.40;0.98;;;;;;;20.88;29.69;101291.52;1804348;77;21120;-46
2022/09/04 10:50:36;;;;;;;3.90;1.10;;;;;;;20.98;29.65;101286.00;1765046;78;21060;-46
2022/09/04 10:53:24;;;;;;;3.40;1.15;;;;;;;21.11;29.53;101292.15;1788195;78;21100;-46
2022/09/04 10:56:25;;;;;;;3.47;1.20;;;;;;;21.15;29.81;101288.14;1759045;78;21002;-46
2022/09/04 10:59:49;;;;;;;4.62;1.45;;;;;;;21.21;28.17;101294.13;1783171;78;21134;-47
2022/09/04 11:02:40;;;;;;;2.90;0.98;;;;;;;21.07;29.78;101294.84;1776005;78;21563;-46
2022/09/04 11:06:09;;;;;;;3.47;1.20;;;;;;;20.76;31.26;101299.05;1786753;78;21042;-46
2022/09/04 11:08:59;;;;;;;5.03;1.60;;;;;;;20.60;31.82;101301.17;1781114;78;21049;-46
2022/09/04 11:12:21;;;;;;;6.03;1.40;;;;;;;20.44;30.83;101298.48;1789559;78;21093;-46
2022/09/04 11:15:15;;;;;;;7.03;1.37;;;;;;;20.35;30.84;101298.98;1771749;78;21286;-47
2022/09/04 11:18:03;;;;;;;4.30;1.45;;;;;;;20.34;30.61;101289.78;1774367;79;21061;-47
2022/09/04 11:20:44;;;;;;;4.45;1.25;;;;;;;20.44;30.23;101280.28;1790786;78;21007;-47
2022/09/04 11:23:52;;;;;;;3.22;1.10;;;;;;;20.55;30.38;101279.96;1764130;79;21046;-47
2022/09/04 11:26:47;;;;;;;3.25;1.20;;;;;;;20.64;29.45;101274.14;1796162;78;21093;-46
2022/09/04 11:29:23;;;;;;;2.80;1.05;;;;;;;20.75;30.12;101271.14;1781456;78;21434;-46
2022/09/04 11:31:56;;;;;;;;;;;;;;;20.89;30.33;101262.41;1779089;78;21101;-46
2022/09/04 11:34:49;;;;;;;4.75;1.87;;;;;;;21.10;29.71;101267.23;1774828;80;20225;-47
2022/09/04 11:37:26;;;;;;;4.30;1.32;;;;;;;21.30;29.88;101258.80;1781498;78;21113;-47
2022/09/04 11:40:05;;;;;;;4.15;1.50;;;;;;;21.55;30.12;101268.13;1780931;78;21086;-47
2022/09/04 11:42:42;;;;;;;3.60;1.42;;;;;;;21.68;28.92;101268.41;1771839;79;21146;-47
2022/09/04 11:45:47;;;;;;;3.37;1.22;;;;;;;21.55;28.57;101265.45;1787768;78;21057;-48
2022/09/04 11:48:25;;;;;;;4.35;1.20;;;;;;;21.48;29.35;101266.14;1780711;78;20955;-47
2022/09/04 11:51:15;;;;;;;4.08;1.45;;;;;;;21.46;28.93;101265.97;1765206;78;21078;-47
2022/09/04 11:54:16;;;;;;;2.95;1.12;;;;;;;21.37;29.30;101260.30;1772780;78;21154;-47
2022/09/04 11:57:03;;;;;;;5.20;1.65;;;;;;;21.44;29.54;101267.47;1779484;79;21135;-48
2022/09/04 11:59:59;;;;;;;3.02;1.00;;;;;;;21.69;30.01;101259.38;1773289;79;21073;-47
2022/09/04 12:02:51;;;;;;;2.95;1.35;;;;;;;21.92;29.76;101258.06;1791257;78;21054;-47
2022/09/04 12:05:44;;;;;;;3.05;1.12;;;;;;;21.87;27.80;101255.94;1777193;78;22192;-47
2022/09/04 12:08:50;;;;;;;4.65;1.27;;;;;;;21.74;27.88;101265.53;1785043;78;21057;-47
2022/09/04 12:11:49;;;;;;;4.67;1.20;;;;;;;21.62;27.72;101259.72;1791938;78;21130;-46
2022/09/04 12:15:00;;;;;;;3.20;1.12;;;;;;;21.63;27.70;101254.71;1787147;78;21071;-47
2022/09/04 12:17:46;;;;;;;2.05;0.80;;;;;;;21.71;28.44;101253.34;1780407;78;21068;-48
2022/09/04 12:20:37;;;;;;;2.80;1.10;;;;;;;21.82;27.74;101249.42;1786660;79;21034;-47
2022/09/04 12:23:32;;;;;;;2.90;0.90;;;;;;;21.80;27.42;101248.25;1795396;78;21125;-47
2022/09/04 12:26:34;;;;;;;3.22;1.25;;;;;;;21.82;28.87;101256.12;1811974;77;21090;-47
2022/09/04 12:29:46;;;;;;;3.45;1.32;;;;;;;21.82;27.83;101248.94;1772787;78;21050;-47
2022/09/04 12:32:54;;;;;;;3.58;1.10;;;;;;;21.86;27.70;101243.54;1778379;78;21085;-47
2022/09/04 12:35:44;;;;;;;2.98;1.20;;;;;;;21.86;27.36;101242.20;1741294;79;21112;-47
2022/09/04 12:38:24;;;;;;;4.33;1.27;;;;;;;21.93;27.76;101249.03;1780321;78;21096;-48
2022/09/04 12:41:07;;;;;;;4.08;1.07;;;;;;;22.05;28.32;101250.28;1775163;80;21719;-47
2022/09/04 12:43:44;;;;;;;2.58;0.88;;;;;;;22.24;28.21;101246.33;1783319;78;21066;-48
2022/09/04 12:46:55;;;;;;;3.30;1.10;;;;;;;22.46;27.56;101242.50;1765598;80;21058;-47
2022/09/04 12:49:30;;;;;;;2.62;0.72;;;;;;;22.73;27.47;101243.77;1781893;78;21037;-48
2022/09/04 12:52:05;;;;;;;4.25;1.02;;;;;;;23.04;25.99;101240.61;1775838;78;21156;-48
2022/09/04 12:54:44;;;;;;;3.37;1.00;;;;;;;23.00;26.09;101236.13;1782234;78;22166;-48
2022/09/04 12:57:33;;;;;;;3.30;1.07;;;;;;;22.80;25.65;101231.80;1780737;78;21061;-48
2022/09/04 13:00:15;;;;;;;3.83;1.00;;;;;;;22.56;26.63;101239.55;1787718;78;21003;-48
2022/09/04 13:03:05;;;;;;;2.62;0.90;;;;;;;22.40;26.63;101240.02;1786321;78;21065;-47
2022/09/04 13:06:03;;;;;;;2.22;0.80;;;;;;;22.39;27.05;101237.03;1783693;78;21034;-47
2022/09/04 13:09:04;;;;;;;4.85;1.10;;;;;;;22.48;26.37;101235.11;1742655;79;21133;-46
2022/09/04 13:11:53;;;;;;;2.27;0.80;;;;;;;22.58;24.86;101238.89;1761756;80;21112;-46
2022/09/04 13:14:43;;;;;;;3.50;1.12;;;;;;;22.69;25.74;101234.41;1756338;80;21592;-47
2022/09/04 13:17:24;;;;;;;3.05;1.10;;;;;;;22.88;25.61;101233.55;1753642;80;21552;-46
2022/09/04 13:20:21;;;;;;;4.67;1.55;;;;;;;23.03;25.73;101230.37;1759503;80;21112;-47